^^
Station Historical Data
Daily Summary for February 28, 2017 Units:  English    Metric   Both
« Previous Day
Next Day »
Daily Weekly Monthly Yearly Custom
  High: Low: Average:
Temperature: 58.5 °F 41.7 °F 49.1 °F
Dew Point: 48.6 °F 33.1 °F 41.7 °F
Humidity: 96% 55% 76%
Wind Speed: 3.0mph 0.0mph 0.6mph
Wind Gust: 10.0mph - -
Wind- - South
Pressure: 30.41 in 30.01 in -
Precipitation: 0.00 in    
Historical Graphs
 
 
Tabular Data for February 28, 2017
Time Temperature Dew Point Pressure Wind Wind Speed Wind Gust Humidity Rainfall Rate (Hourly) Conditions
00:00 44.1 °F 33.1 °F 30.41 in Calm   1.0 mph 65% 0.00 in OVC
00:15 43.6 °F 33.4 °F 30.41 in Calm     67% 0.00 in BKN
00:30 43.9 °F 33.7 °F 30.41 in Calm   1.0 mph 67% 0.00 in BKN
00:45 44.0 °F 33.7 °F 30.41 in Calm     67% 0.00 in BKN
01:00 44.0 °F 34.1 °F 30.41 in Calm   1.0 mph 68% 0.00 in BKN
02:15 44.3 °F 34.4 °F 30.39 in Calm     68% 0.00 in OVC
02:30 43.9 °F 34.4 °F 30.39 in Calm     69% 0.00 in OVC
02:45 43.6 °F 34.1 °F 30.38 in Calm     69% 0.00 in OVC
03:00 43.2 °F 33.7 °F 30.38 in ESE 1.0 mph 2.0 mph 69% 0.00 in OVC
03:15 43.2 °F 34.1 °F 30.38 in Calm   1.0 mph 70% 0.00 in OVC
03:30 42.8 °F 34.0 °F 30.38 in Calm     71% 0.00 in OVC
03:45 42.4 °F 34.4 °F 30.38 in Calm     73% 0.00 in OVC
04:00 43.3 °F 34.2 °F 30.38 in Calm   1.0 mph 70% 0.00 in OVC
04:15 43.2 °F 34.1 °F 30.37 in Calm   1.0 mph 70% 0.00 in OVC
04:30 43.2 °F 34.4 °F 30.38 in Calm   1.0 mph 71% 0.00 in OVC
04:45 42.9 °F 34.5 °F 30.38 in Calm   1.0 mph 72% 0.00 in OVC
05:00 42.8 °F 34.7 °F 30.38 in SE 1.0 mph 2.0 mph 73% 0.00 in OVC
05:15 42.6 °F 34.9 °F 30.38 in Calm   2.0 mph 74% 0.00 in BKN
05:30 42.2 °F 34.8 °F 30.38 in Calm   1.0 mph 75% 0.00 in BKN
05:45 41.8 °F 34.5 °F 30.38 in Calm   1.0 mph 75% 0.00 in BKN
06:00 42.0 °F 35.0 °F 30.38 in Calm   1.0 mph 76% 0.00 in BKN
06:15 41.8 °F 34.8 °F 30.37 in Calm   1.0 mph 76% 0.00 in BKN
06:45 41.8 °F 35.1 °F 30.37 in Calm     77% 0.00 in BKN
07:00 41.7 °F 35.0 °F 30.37 in Calm     77% 0.00 in BKN
07:15 41.8 °F 35.4 °F 30.37 in Calm   1.0 mph 78% 0.00 in BKN
07:30 41.9 °F 35.5 °F 30.38 in Calm   1.0 mph 78% 0.00 in BKN
07:45 42.1 °F 35.7 °F 30.38 in Calm     78% 0.00 in BKN
08:00 42.4 °F 35.7 °F 30.39 in Calm     77% 0.00 in BKN
08:15 43.3 °F 36.2 °F 30.38 in Calm     76% 0.00 in BKN
08:30 44.1 °F 36.3 °F 30.38 in Calm   1.0 mph 74% 0.00 in BKN
08:45 44.9 °F 36.8 °F 30.38 in Calm   2.0 mph 73% 0.00 in BKN
09:00 45.7 °F 36.8 °F 30.38 in Calm   3.0 mph 71% 0.00 in BKN
09:15 47.1 °F 37.4 °F 30.37 in Calm   4.0 mph 69% 0.00 in BKN
09:30 48.4 °F 37.9 °F 30.37 in Calm   2.0 mph 67% 0.00 in BKN
09:45 49.0 °F 38.1 °F 30.36 in ENE 1.0 mph 4.0 mph 66% 0.00 in BKN
10:00 49.6 °F 37.9 °F 30.36 in ENE 2.0 mph 6.0 mph 64% 0.00 in BKN
10:15 50.0 °F 38.7 °F 30.35 in Calm   5.0 mph 65% 0.00 in BKN
10:30 51.6 °F 39.0 °F 30.35 in SSE 2.0 mph 6.0 mph 62% 0.00 in BKN
10:45 52.4 °F 39.4 °F 30.35 in Calm   6.0 mph 61% 0.00 in BKN
11:00 53.3 °F 39.3 °F 30.35 in Calm   4.0 mph 59% 0.00 in BKN
11:15 54.3 °F 39.8 °F 30.35 in Calm   7.0 mph 58% 0.00 in BKN
11:30 55.2 °F 40.2 °F 30.33 in SSE 1.0 mph 8.0 mph 57% 0.00 in BKN
11:45 55.3 °F 39.4 °F 30.33 in WSW 1.0 mph 6.0 mph 55% 0.00 in BKN
12:00 55.2 °F 40.6 °F 30.31 in East 1.0 mph 5.0 mph 58% 0.00 in BKN
12:15 56.1 °F 41.5 °F 30.30 in South 3.0 mph 8.0 mph 58% 0.00 in CLR
12:30 55.7 °F 41.1 °F 30.30 in SSW 2.0 mph 10.0 mph 58% 0.00 in CLR
12:45 56.3 °F 42.5 °F 30.29 in SSE 1.0 mph 7.0 mph 60% 0.00 in CLR
13:00 57.7 °F 43.9 °F 30.28 in SSE 3.0 mph 9.0 mph 60% 0.00 in CLR
13:15 57.5 °F 44.2 °F 30.27 in South 3.0 mph 8.0 mph 61% 0.00 in CLR
13:30 57.9 °F 45.0 °F 30.25 in South 2.0 mph 6.0 mph 62% 0.00 in CLR
13:45 58.2 °F 45.3 °F 30.24 in Calm   9.0 mph 62% 0.00 in CLR
14:00 58.5 °F 45.9 °F 30.24 in South 3.0 mph 9.0 mph 63% 0.00 in CLR
14:15 57.9 °F 47.0 °F 30.24 in Calm   9.0 mph 67% 0.00 in FEW
14:30 58.0 °F 47.5 °F 30.23 in SSW 2.0 mph 8.0 mph 68% 0.00 in FEW
14:45 56.9 °F 48.0 °F 30.22 in SSW 1.0 mph 8.0 mph 72% 0.00 in FEW
15:00 56.3 °F 48.1 °F 30.21 in SSW 2.0 mph 9.0 mph 74% 0.00 in FEW
15:15 55.9 °F 47.7 °F 30.20 in South 3.0 mph 10.0 mph 74% 0.00 in BKN
15:30 55.2 °F 47.8 °F 30.19 in SE 2.0 mph 7.0 mph 76% 0.00 in BKN
15:45 54.7 °F 47.3 °F 30.19 in South 2.0 mph 7.0 mph 76% 0.00 in BKN
16:00 54.2 °F 47.1 °F 30.18 in Calm   7.0 mph 77% 0.00 in BKN
16:15 53.6 °F 47.2 °F 30.18 in SSW 1.0 mph 5.0 mph 79% 0.00 in BKN
16:30 53.0 °F 46.7 °F 30.17 in SSW 2.0 mph 6.0 mph 79% 0.00 in BKN
16:45 52.4 °F 47.0 °F 30.18 in Calm   4.0 mph 82% 0.00 in BKN
17:00 51.7 °F 46.7 °F 30.18 in Calm   4.0 mph 83% 0.00 in BKN
17:15 51.4 °F 46.7 °F 30.18 in WNW 1.0 mph 3.0 mph 84% 0.00 in BKN
17:30 51.1 °F 47.1 °F 30.17 in Calm   3.0 mph 86% 0.00 in BKN
17:45 51.2 °F 47.5 °F 30.19 in Calm   3.0 mph 87% 0.00 in BKN
18:00 51.2 °F 47.5 °F 30.18 in WSW 1.0 mph 3.0 mph 87% 0.00 in BKN
18:15 51.3 °F 47.9 °F 30.17 in NW 2.0 mph 6.0 mph 88% 0.00 in OVC
18:30 51.1 °F 48.0 °F 30.17 in SSE 1.0 mph 5.0 mph 89% 0.00 in OVC
18:45 50.8 °F 48.0 °F 30.16 in NNE 1.0 mph 4.0 mph 90% 0.00 in OVC
19:00 50.5 °F 48.0 °F 30.15 in SSE 2.0 mph 5.0 mph 91% 0.00 in OVC
19:15 50.3 °F 48.1 °F 30.15 in Calm   3.0 mph 92% 0.00 in OVC
19:30 50.1 °F 48.2 °F 30.15 in NW 1.0 mph 4.0 mph 93% 0.00 in OVC
19:45 50.0 °F 48.3 °F 30.15 in SSW 2.0 mph 5.0 mph 94% 0.00 in OVC
20:00 50.1 °F 48.4 °F 30.15 in WSW 1.0 mph 5.0 mph 94% 0.00 in OVC
20:15 49.9 °F 48.5 °F 30.14 in SSE 2.0 mph 6.0 mph 95% 0.00 in CLR
20:30 49.8 °F 48.4 °F 30.14 in SSE 1.0 mph 4.0 mph 95% 0.00 in CLR
20:45 49.5 °F 48.2 °F 30.13 in Calm   4.0 mph 95% 0.00 in CLR
21:00 49.2 °F 47.8 °F 30.12 in SE 1.0 mph 3.0 mph 95% 0.00 in CLR
21:15 48.9 °F 47.5 °F 30.11 in Calm   4.0 mph 95% 0.00 in CLR
21:30 48.9 °F 47.5 °F 30.10 in Calm   4.0 mph 95% 0.00 in CLR
21:45 48.7 °F 47.6 °F 30.09 in Calm   4.0 mph 96% 0.00 in CLR
22:00 48.9 °F 47.8 °F 30.08 in Calm   3.0 mph 96% 0.00 in CLR
22:15 49.0 °F 47.9 °F 30.07 in Calm   3.0 mph 96% 0.00 in CLR
22:30 49.0 °F 47.9 °F 30.06 in Calm   2.0 mph 96% 0.00 in CLR
22:45 49.1 °F 48.0 °F 30.05 in Calm   2.0 mph 96% 0.00 in CLR
23:00 49.2 °F 48.1 °F 30.04 in Calm   1.0 mph 96% 0.00 in CLR
23:15 49.3 °F 48.2 °F 30.03 in Calm   2.0 mph 96% 0.00 in CLR
23:30 49.4 °F 48.3 °F 30.02 in Calm   2.0 mph 96% 0.00 in CLR
23:45 49.7 °F 48.6 °F 30.01 in SSE 1.0 mph 5.0 mph 96% 0.00 in CLR
TarryTown NY Weather
Compliments of Weather Underground - 1.5 mb